地図

経路データ

SID SEASON NUMBER BASIN SUBBASIN NAME ISO_TIME NATURE LAT LON WMO_WIND WMO_PRES WMO_AGENCY TRACK_TYPE DIST2LAND LANDFALL IFLAG USA_AGENCY USA_ATCF_ID USA_LAT USA_LON USA_RECORD USA_STATUS USA_WIND USA_PRES USA_SSHS USA_R34_NE USA_R34_SE USA_R34_SW USA_R34_NW USA_R50_NE USA_R50_SE USA_R50_SW USA_R50_NW USA_R64_NE USA_R64_SE USA_R64_SW USA_R64_NW USA_POCI USA_ROCI USA_RMW USA_EYE TOKYO_LAT TOKYO_LON TOKYO_GRADE TOKYO_WIND TOKYO_PRES TOKYO_R50_DIR TOKYO_R50_LONG TOKYO_R50_SHORT TOKYO_R30_DIR TOKYO_R30_LONG TOKYO_R30_SHORT TOKYO_LAND CMA_LAT CMA_LON CMA_CAT CMA_WIND CMA_PRES HKO_LAT HKO_LON HKO_CAT HKO_WIND HKO_PRES NEWDELHI_LAT NEWDELHI_LON NEWDELHI_GRADE NEWDELHI_WIND NEWDELHI_PRES NEWDELHI_CI NEWDELHI_DP NEWDELHI_POCI REUNION_LAT REUNION_LON REUNION_TYPE REUNION_WIND REUNION_PRES REUNION_TNUM REUNION_CI REUNION_RMW REUNION_R34_NE REUNION_R34_SE REUNION_R34_SW REUNION_R34_NW REUNION_R50_NE REUNION_R50_SE REUNION_R50_SW REUNION_R50_NW REUNION_R64_NE REUNION_R64_SE REUNION_R64_SW REUNION_R64_NW BOM_LAT BOM_LON BOM_TYPE BOM_WIND BOM_PRES BOM_TNUM BOM_CI BOM_RMW BOM_R34_NE BOM_R34_SE BOM_R34_SW BOM_R34_NW BOM_R50_NE BOM_R50_SE BOM_R50_SW BOM_R50_NW BOM_R64_NE BOM_R64_SE BOM_R64_SW BOM_R64_NW BOM_ROCI BOM_POCI BOM_EYE BOM_POS_METHOD BOM_PRES_METHOD NADI_LAT NADI_LON NADI_CAT NADI_WIND NADI_PRES WELLINGTON_LAT WELLINGTON_LON WELLINGTON_WIND WELLINGTON_PRES DS824_LAT DS824_LON DS824_STAGE DS824_WIND DS824_PRES TD9636_LAT TD9636_LON TD9636_STAGE TD9636_WIND TD9636_PRES TD9635_LAT TD9635_LON TD9635_WIND TD9635_PRES TD9635_ROCI NEUMANN_LAT NEUMANN_LON NEUMANN_CLASS NEUMANN_WIND NEUMANN_PRES MLC_LAT MLC_LON MLC_CLASS MLC_WIND MLC_PRES USA_GUST BOM_GUST BOM_GUST_PER REUNION_GUST REUNION_GUST_PER USA_SEAHGT USA_SEARAD_NE USA_SEARAD_SE USA_SEARAD_SW USA_SEARAD_NW STORM_SPEED STORM_DIR
1951337N09150 1951 92 WP MM AMY 1951-12-03 00:00:00 TS 9.00000 150.200 1000 tokyo main 1282 1271 OOO______OOO__ jtwc_wp WP161951 9.00000 150.100 60 0 9.00000 150.400 9 1000 0 0 0 9.00000 150.400 1 29 1000 9.00000 150.100 TC 60 9.00000 150.100 2 60 9.00000 150.100 60 999 240 9 274
1951337N09150 1951 92 WP MM AMY 1951-12-03 03:00:00 TS 9.03116 149.725 main 1269 1261 PPP______PPP__ WP161951 9.00024 149.615 65 1 9.13019 149.840 9 999 0 0 9.05759 149.913 1 29 999 9.00024 149.615 TC 65 8.99844 149.752 2 62 9.00024 149.615 65 999 240 9 273
1951337N09150 1951 92 WP MM AMY 1951-12-03 06:00:00 TS 9.04957 149.280 999 tokyo main 1261 1254 OOO______OPO__ jtwc_wp WP161951 9.00000 149.200 70 1 9.20000 149.300 9 999 0 0 0 9.10000 149.400 1 29 999 9.00000 149.200 TC 70 8.99741 149.383 2 65 9.00000 149.200 70 999 240 8 271
1951337N09150 1951 92 WP MM AMY 1951-12-03 09:00:00 TS 9.04739 148.876 main 1254 1249 PPP______PPP__ WP161951 8.99976 148.880 70 1 9.17240 148.792 9 999 0 0 9.11498 148.850 1 29 999 8.99976 148.880 TC 70 8.99770 148.972 2 67 8.99976 148.880 70 999 240 8 269
1951337N09150 1951 92 WP MM AMY 1951-12-03 12:00:00 TS 9.03333 148.433 999 tokyo main 1248 1245 OOO______OOO__ jtwc_wp WP161951 9.00000 148.500 70 1 9.10000 148.300 9 999 0 0 0 9.10000 148.300 1 29 999 9.00000 148.500 TC 70 9.00000 148.500 3 70 9.00000 148.500 70 999 240 10 268
1951337N09150 1951 92 WP MM AMY 1951-12-03 15:00:00 TS 9.01270 147.861 main 1245 1243 PPP______PPP__ WP161951 8.99266 147.880 67 1 9.04246 147.792 9 999 0 0 9.04996 147.777 1 29 999 8.99266 147.880 TC 67 9.00578 147.953 3 68 8.99266 147.880 67 999 240 12 269
1951337N09150 1951 92 WP MM AMY 1951-12-03 18:00:00 TS 9.00337 147.259 999 tokyo main 1243 1243 OOO______OPO__ jtwc_wp WP161951 9.00000 147.200 65 1 9.00000 147.300 9 999 0 0 0 9.00000 147.300 1 29 999 9.00000 147.200 TC 65 9.02020 147.352 3 67 9.00000 147.200 65 999 240 11 270
1951337N09150 1951 92 WP MM AMY 1951-12-03 21:00:00 TS 9.02185 146.735 main 1243 1243 PPP______PPP__ WP161951 9.04228 146.650 65 1 8.96994 146.835 9 998 0 0 8.98485 146.900 1 33 998 9.04228 146.650 TC 65 9.04948 146.725 3 66 9.04228 146.650 65 999 240 10 274
1951337N09150 1951 92 WP MM AMY 1951-12-04 00:00:00 TS 9.06667 146.217 998 tokyo main 1255 1255 OOO______OOO__ jtwc_wp WP161951 9.10000 146.100 65 1 9.00000 146.400 9 998 0 0 0 9.00000 146.500 2 38 998 9.10000 146.100 TC 65 9.10000 146.100 4 65 9.10000 146.100 65 999 240 11 275
1951337N09150 1951 92 WP MM AMY 1951-12-04 03:00:00 TS 9.12132 145.665 main 1258 1258 PPP______PPP__ WP161951 9.13507 145.442 65 1 9.13467 146.052 9 998 0 0 9.03481 146.052 2 38 998 9.13507 145.442 TC 65 9.15324 145.558 4 62 9.13507 145.442 65 1000 240 11 277
1951337N09150 1951 92 WP MM AMY 1951-12-04 06:00:00 TS 9.20521 145.086 998 tokyo main 1277 1277 OOO______OPO__ jtwc_wp WP161951 9.20000 144.800 65 1 9.30000 145.600 9 998 0 0 0 9.10000 145.500 2 38 998 9.20000 144.800 TC 65 9.23125 145.017 4 60 9.20000 144.800 65 1001 240 12 280
1951337N09150 1951 92 WP MM AMY 1951-12-04 09:00:00 TS 9.31955 144.519 main 1298 1298 PPP______PPP__ WP161951 9.32696 144.345 60 0 9.40770 144.852 9 998 0 0 9.18505 144.787 2 38 998 9.32696 144.345 TC 60 9.34369 144.442 4 57 9.32696 144.345 60 1002 210 12 282
1951337N09150 1951 92 WP MM AMY 1951-12-04 12:00:00 TS 9.46667 143.867 998 tokyo main 1333 1333 OOO______OOO__ jtwc_wp WP161951 9.50000 143.800 55 0 9.50000 144.000 9 998 0 0 0 9.30000 144.000 2 38 998 9.50000 143.800 TC 55 9.50000 143.800 2 55 9.50000 143.800 55 1003 180 15 282
1951337N09150 1951 92 WP MM AMY 1951-12-04 15:00:00 TS 9.62879 143.025 main 1363 1352 PPP______PPP__ WP161951 9.67799 142.880 52 0 9.59229 143.242 9 998 0 0 9.43484 143.250 2 38 998 9.67799 142.880 TC 52 9.71161 143.015 2 52 9.67799 142.880 52 1004 180 17 282
1951337N09150 1951 92 WP MM AMY 1951-12-04 18:00:00 TS 9.82725 142.144 998 tokyo main 1348 1345 OOO______OPO__ jtwc_wp WP161951 9.90000 141.900 50 0 9.70000 142.500 9 998 0 0 0 9.60000 142.500 2 38 998 9.90000 141.900 TC 50 9.96351 142.166 2 50 9.90000 141.900 50 1005 180 17 285
1951337N09150 1951 92 WP MM AMY 1951-12-04 21:00:00 TS 10.0465 141.395 main 1347 1347 PPP______PPP__ WP161951 10.1846 141.162 47 0 9.76707 141.787 9 998 0 0 9.72458 141.787 2 38 998 10.1846 141.162 TC 47 10.2335 141.308 2 47 10.1846 141.162 47 1002 180 15 289
1951337N09150 1951 92 WP MM AMY 1951-12-05 00:00:00 TS 10.3333 140.667 998 tokyo main 1352 1350 OOO______OOO__ jtwc_wp WP161951 10.5000 140.500 45 0 10.0000 141.000 9 998 0 0 0 10.0000 141.000 2 38 998 10.5000 140.500 TC 45 10.5000 140.500 2 45 10.5000 140.500 45 1000 180 17 295
1951337N09150 1951 92 WP MM AMY 1951-12-05 03:00:00 TS 10.7506 139.862 main 1373 1366 PPP______PPP__ WP161951 10.8225 139.778 65 1 10.6428 140.001 9 996 0 0 10.6503 140.001 2 43 996 10.8225 139.778 TC 65 10.7430 139.837 2 56 10.8225 139.778 65 994 180 18 298
1951337N09150 1951 92 WP MM AMY 1951-12-05 06:00:00 TS 11.1464 139.088 995 tokyo main 1377 1365 OOO______OPO__ jtwc_wp WP161951 11.1000 139.100 85 2 11.3000 139.000 9 995 0 0 0 11.3000 139.000 3 48 995 11.1000 139.100 TC 85 10.9782 139.227 2 67 11.1000 139.100 85 988 180 15 294
1951337N09150 1951 92 WP MM AMY 1951-12-05 09:00:00 TS 11.3607 138.458 main 1367 1305 PPP______PPP__ WP161951 11.2645 138.565 87 2 11.5895 138.212 9 995 0 0 11.5820 138.212 3 48 995 11.2645 138.565 TC 87 11.1993 138.628 2 78 11.2645 138.565 87 986 210 13 286
1951337N09150 1951 92 WP MM AMY 1951-12-05 12:00:00 TS 11.5000 137.833 995 tokyo main 1295 1225 OOO______OOO__ jtwc_wp WP161951 11.4000 138.000 90 2 11.7000 137.500 9 995 0 0 0 11.7000 137.500 3 48 995 11.4000 138.000 TC 90 11.4000 138.000 3 90 11.4000 138.000 90 984 240 14 283
1951337N09150 1951 92 WP MM AMY 1951-12-05 15:00:00 TS 11.6678 137.069 main 1225 1142 PPP______PPP__ WP161951 11.6077 137.223 92 2 11.7648 136.750 9 987 0 0 11.8223 136.750 3 58 987 11.6077 137.223 TC 92 11.5964 137.246 3 92 11.6077 137.223 92 982 240 16 282
1951337N09150 1951 92 WP MM AMY 1951-12-05 18:00:00 TS 11.8114 136.277 980 tokyo main 1142 1071 OOO______OPO__ jtwc_wp WP161951 11.8000 136.400 95 2 11.8000 136.000 9 980 0 0 0 11.9000 136.000 4 68 980 11.8000 136.400 TC 95 11.7683 136.463 3 95 11.8000 136.400 95 980 240 16 280
1951337N09150 1951 92 WP MM AMY 1951-12-05 21:00:00 TS 11.9331 135.511 main 1061 998 PPP______PPP__ WP161951 11.9374 135.648 97 3 11.9151 135.213 9 975 0 0 11.9651 135.213 4 72 975 11.9374 135.648 TC 97 11.9059 135.699 3 97 11.9374 135.648 97 977 240 14 278
1951337N09150 1951 92 WP MM AMY 1951-12-06 00:00:00 TS 12.0000 134.833 970 tokyo main 987 933 OOO______OOO__ jtwc_wp WP161951 12.0000 135.000 100 3 12.0000 134.500 9 970 0 0 0 12.0000 134.500 4 77 970 12.0000 135.000 TC 100 12.0000 135.000 4 100 12.0000 135.000 100 975 240 12 272
1951337N09150 1951 92 WP MM AMY 1951-12-06 03:00:00 TS 11.9810 134.308 main 933 889 PPP______PPP__ WP161951 11.9571 134.527 100 3 11.9648 133.932 9 960 0 0 12.0073 133.932 4 91 960 11.9571 134.527 TC 100 12.0423 134.403 4 100 11.9571 134.527 100 970 240 10 266
1951337N09150 1951 92 WP MM AMY 1951-12-06 06:00:00 TS 11.9407 133.863 950 tokyo main 889 836 OOO______OPO__ jtwc_wp WP161951 11.9000 134.100 100 3 11.9000 133.500 9 950 0 0 0 12.0000 133.500 6 106 950 11.9000 134.100 TC 100 12.0441 133.880 4 100 11.9000 134.100 100 966 240 9 268
1951337N09150 1951 92 WP MM AMY 1951-12-06 09:00:00 TS 11.9574 133.386 main 836 793 PPP______PPP__ WP161951 11.9427 133.520 100 3 11.8924 133.170 9 950 0 0 11.9998 133.170 6 106 950 11.9427 133.520 TC 100 12.0239 133.416 4 100 11.9427 133.520 100 962 240 9 273
1951337N09150 1951 92 WP MM AMY 1951-12-06 12:00:00 TS 11.9833 132.967 950 tokyo main 793 760 OOO______OOO__ jtwc_wp WP161951 12.0000 133.000 100 3 11.9000 132.900 9 950 0 0 0 12.0000 132.900 6 106 950 12.0000 133.000 TC 100 12.0000 133.000 4 100 12.0000 133.000 100 959 240 7 272
1951337N09150 1951 92 WP MM AMY 1951-12-06 15:00:00 TS 11.9855 132.668 main 760 728 PPP______PPP__ WP161951 12.0072 132.735 100 3 11.9000 132.600 9 950 0 0 11.9999 132.607 6 106 950 12.0072 132.735 TC 100 11.9915 132.595 4 100 12.0072 132.735 100 956 240 6 270
1951337N09150 1951 92 WP MM AMY 1951-12-06 18:00:00 TS 11.9808 132.389 950 tokyo main 728 685 OOO______OPO__ jtwc_wp WP161951 12.0000 132.500 100 3 11.9000 132.300 9 950 0 0 0 12.0000 132.300 6 106 950 12.0000 132.500 TC 100 11.9846 132.232 4 100 12.0000 132.500 100 953 240 7 270
1951337N09150 1951 92 WP MM AMY 1951-12-06 21:00:00 TS 11.9798 131.979 main 685 642 PPP______PPP__ WP161951 12.0003 132.013 100 3 11.8925 131.992 9 950 0 0 12.0000 131.943 6 106 950 12.0003 132.013 TC 100 11.9854 131.904 4 100 12.0003 132.013 100 949 240 8 270
1951337N09150 1951 92 WP MM AMY 1951-12-07 00:00:00 TS 11.9833 131.617 950 tokyo main 642 631 OOO______OOO__ jtwc_wp WP161951 12.0000 131.600 100 3 11.9000 131.700 9 950 0 0 0 12.0000 131.600 6 106 950 12.0000 131.600 TC 100 12.0000 131.600 4 100 12.0000 131.600 100 946 240 5 271
1951337N09150 1951 92 WP MM AMY 1951-12-07 03:00:00 TS 11.9906 131.492 main 631 620 PPP______PPP__ WP161951 11.9847 131.615 100 3 11.9499 131.450 9 950 0 0 11.9999 131.343 6 106 950 11.9847 131.615 TC 100 12.0394 131.312 4 100 11.9847 131.615 100 942 300 3 277
1951337N09150 1951 92 WP MM AMY 1951-12-07 06:00:00 TS 12.0154 131.357 950 tokyo main 620 580 OOO______OPO__ jtwc_wp WP161951 12.0000 131.600 100 3 12.0000 131.200 9 950 0 0 0 12.0000 131.100 6 106 950 12.0000 131.600 TC 100 12.0922 131.043 4 100 12.0000 131.600 100 938 360 5 279
1951337N09150 1951 92 WP MM AMY 1951-12-07 09:00:00 TS 12.0725 130.967 main 580 526 PPP______PPP__ WP161951 12.0929 131.103 100 3 12.0075 130.907 9 950 0 0 12.0000 130.808 6 106 950 12.0929 131.103 TC 100 12.1488 130.777 4 100 12.0929 131.103 100 936 360 8 278
1951337N09150 1951 92 WP MM AMY 1951-12-07 12:00:00 TS 12.1333 130.517 950 tokyo main 526 498 OOO______OOO__ jtwc_wp WP161951 12.2000 130.500 100 3 12.0000 130.600 9 950 0 0 0 12.0000 130.500 6 106 950 12.2000 130.500 TC 100 12.2000 130.500 4 100 12.2000 130.500 100 934 360 8 278
1951337N09150 1951 92 WP MM AMY 1951-12-07 15:00:00 TS 12.1752 130.172 main 498 466 PPP______PPP__ WP161951 12.2648 130.112 100 3 11.9999 130.308 9 950 0 0 12.0000 130.200 6 106 950 12.2648 130.112 TC 100 12.2565 130.190 4 100 12.2648 130.112 100 931 360 6 276
1951337N09150 1951 92 WP MM AMY 1951-12-07 18:00:00 TS 12.2004 129.861 950 tokyo main 466 435 OOO______OPO__ jtwc_wp WP161951 12.3000 129.800 100 3 12.0000 130.000 9 950 0 0 0 12.0000 129.900 6 106 950 12.3000 129.800 TC 100 12.3024 129.865 4 100 12.3000 129.800 100 929 360 6 274
1951337N09150 1951 92 WP MM AMY 1951-12-07 21:00:00 TS 12.2161 129.551 main 435 404 PPP______PPP__ WP161951 12.3224 129.500 100 3 12.0000 129.658 9 950 0 0 12.0074 129.615 6 106 950 12.3224 129.500 TC 100 12.3221 129.533 4 100 12.3224 129.500 100 926 360 6 270
1951337N09150 1951 92 WP MM AMY 1951-12-08 00:00:00 TS 12.2000 129.233 950 tokyo main 394 359 OOO______OOO__ jtwc_wp WP161951 12.3000 129.200 100 3 12.0000 129.300 9 950 0 0 0 12.0000 129.300 6 106 950 12.3000 129.200 TC 100 12.3000 129.200 4 100 12.3000 129.200 100 924 360 7 264
1951337N09150 1951 92 WP MM AMY 1951-12-08 03:00:00 TS 12.1449 128.878 main 359 319 PPP______PPP__ WP161951 12.2225 128.850 100 3 12.0225 128.950 9 950 0 0 11.9576 128.900 6 106 950 12.2225 128.850 TC 100 12.2221 128.867 4 105 12.2225 128.850 100 929 360 7 258
1951337N09150 1951 92 WP MM AMY 1951-12-08 06:00:00 TS 12.0504 128.522 950 tokyo main 319 280 OOO______OPO__ jtwc_wp WP161951 12.1000 128.500 100 3 12.0000 128.600 9 950 0 0 0 11.9000 128.500 6 106 950 12.1000 128.500 TC 100 12.1024 128.535 4 110 12.1000 128.500 100 934 360 7 252
1951337N09150 1951 92 WP MM AMY 1951-12-08 09:00:00 TS 11.9252 128.200 main 280 245 PPP______PPP__ WP161951 11.9500 128.185 110 3 11.8725 128.242 9 950 0 0 11.8724 128.193 6 106 950 11.9500 128.185 TC 110 11.9565 128.211 4 115 11.9500 128.185 110 939 330 7 246
1951337N09150 1951 92 WP MM AMY 1951-12-08 12:00:00 TS 11.7833 127.900 950 tokyo main 245 211 OOO______OOO__ jtwc_wp WP161951 11.8000 127.900 120 4 11.7000 127.900 9 950 0 0 0 11.8000 127.900 6 106 950 11.8000 127.900 TC 120 11.8000 127.900 4 120 11.8000 127.900 120 944 300 6 245
1951337N09150 1951 92 WP MM AMY 1951-12-08 15:00:00 TS 11.6560 127.621 main 211 183 PPP______PPP__ WP161951 11.7074 127.650 115 4 11.5500 127.585 9 950 0 0 11.6150 127.542 6 106 950 11.7074 127.650 TC 115 11.6486 127.647 4 115 11.7074 127.650 115 945 270 6 244
1951337N09150 1951 92 WP MM AMY 1951-12-08 18:00:00 TS 11.5153 127.350 950 tokyo main 183 145 OOO______OPO__ jtwc_wp WP161951 11.6000 127.400 110 3 11.4000 127.300 9 950 0 0 0 11.4000 127.200 6 106 950 11.6000 127.400 TC 110 11.4918 127.403 4 110 11.6000 127.400 110 946 240 6 238
1951337N09150 1951 92 WP MM AMY 1951-12-08 21:00:00 TS 11.3360 127.092 main 145 111 PPP______PPP__ WP161951 11.3999 127.122 105 3 11.2348 127.095 9 950 0 0 11.2424 126.958 6 106 950 11.3999 127.122 TC 105 11.3392 127.132 4 105 11.3999 127.122 105 947 210 7 238
1951337N09150 1951 92 WP MM AMY 1951-12-09 00:00:00 TS 11.1667 126.783 950 tokyo main 111 66 OOO______OOO__ jtwc_wp WP161951 11.2000 126.800 100 3 11.1000 126.800 9 950 0 0 0 11.1000 126.700 6 106 950 11.2000 126.800 TC 100 11.2000 126.800 4 100 11.2000 126.800 100 949 180 8 248
1951337N09150 1951 92 WP MM AMY 1951-12-09 03:00:00 TS 11.0561 126.379 main 66 10 PPP______PPP__ WP161951 11.0849 126.445 97 3 11.0428 126.230 9 950 0 0 10.9575 126.338 6 106 950 11.0849 126.445 TC 97 11.0816 126.373 4 97 11.0849 126.445 97 951 180 9 257
1951337N09150 1951 92 WP MM AMY 1951-12-09 06:00:00 TS 10.9629 125.897 950 tokyo main 10 0 OOO______OPO__ jtwc_wp WP161951 11.0000 126.000 95 2 11.0000 125.600 9 950 0 0 0 10.8000 125.900 6 106 950 11.0000 126.000 TC 95 10.9776 125.882 4 95 11.0000 126.000 95 953 180 10 258
1951337N09150 1951 92 WP MM AMY 1951-12-09 09:00:00 TS 10.8437 125.364 main 31 0 PPP______PPP__ WP161951 10.9001 125.423 92 2 10.8998 125.135 9 950 0 0 10.5774 125.430 6 101 952 10.9001 125.423 TC 92 10.8847 125.351 4 92 10.9001 125.423 92 955 180 11 258
1951337N09150 1951 92 WP MM AMY 1951-12-09 12:00:00 TS 10.7333 124.800 950 tokyo main 0 0 OOO______OOO__ jtwc_wp WP161951 10.8000 124.800 90 2 10.8000 124.700 9 950 0 0 0 10.4000 124.900 5 97 955 10.8000 124.800 TC 90 10.8000 124.800 4 90 10.8000 124.800 90 957 180 11 260
1951337N09150 1951 92 WP MM AMY 1951-12-09 15:00:00 TS 10.6492 124.245 main 21 0 PPP______PPP__ WP161951 10.6924 124.243 87 2 10.7425 124.200 9 955 0 0 10.3701 124.293 5 97 957 10.6924 124.243 TC 87 10.7056 124.252 4 88 10.6924 124.243 87 958 150 11 262
1951337N09150 1951 92 WP MM AMY 1951-12-09 18:00:00 TS 10.5867 123.699 960 tokyo main 10 0 OOO______OPO__ jtwc_wp WP161951 10.6000 123.700 85 2 10.7000 123.700 9 960 0 0 0 10.4000 123.700 5 97 960 10.6000 123.700 TC 85 10.6200 123.692 4 87 10.6000 123.700 85 960 120 11 264
1951337N09150 1951 92 WP MM AMY 1951-12-09 21:00:00 TS 10.5340 123.174 main 0 0 PPP______PPP__ WP161951 10.5349 123.143 85 2 10.6498 123.258 9 960 0 0 10.3999 123.220 5 97 960 10.5349 123.143 TC 85 10.5494 123.136 4 86 10.5349 123.143 85 962 150 10 265
1951337N09150 1951 92 WP MM AMY 1951-12-10 00:00:00 TS 10.5000 122.667 960 tokyo main 10 10 OOO______OOO__ jtwc_wp WP161951 10.5000 122.600 85 2 10.6000 122.800 9 960 0 0 0 10.4000 122.800 5 97 960 10.5000 122.600 TC 85 10.5000 122.600 4 85 10.5000 122.600 85 964 180 10 267
1951337N09150 1951 92 WP MM AMY 1951-12-10 03:00:00 TS 10.4816 122.164 main 10 0 PPP______PPP__ WP161951 10.4924 122.085 85 2 10.5426 122.242 9 960 0 0 10.3999 122.408 5 97 960 10.4924 122.085 TC 85 10.4702 122.079 4 83 10.4924 122.085 85 966 180 10 269
1951337N09150 1951 92 WP MM AMY 1951-12-10 06:00:00 TS 10.4771 121.680 960 tokyo main 24 24 OOO______OPO__ jtwc_wp WP161951 10.5000 121.600 85 2 10.5000 121.700 9 960 0 0 0 10.4000 122.000 5 97 960 10.5000 121.600 TC 85 10.4624 121.583 4 82 10.5000 121.600 85 968 180 9 270
1951337N09150 1951 92 WP MM AMY 1951-12-10 09:00:00 TS 10.4751 121.211 main 77 77 PPP______PPP__ WP161951 10.5000 121.120 82 1 10.4849 121.278 9 960 0 0 10.3925 121.507 5 97 960 10.5000 121.120 TC 82 10.4734 121.120 4 81 10.5000 121.120 82 970 180 9 270
1951337N09150 1951 92 WP MM AMY 1951-12-10 12:00:00 TS 10.4833 120.783 960 tokyo main 120 76 OOO______OOO__ jtwc_wp WP161951 10.5000 120.700 80 1 10.5000 120.900 9 960 0 0 0 10.4000 121.000 5 97 960 10.5000 120.700 TC 80 10.5000 120.700 4 80 10.5000 120.700 80 972 180 8 271
1951337N09150 1951 92 WP MM AMY 1951-12-10 15:00:00 TS 10.4945 120.409 main 76 43 PPP______PPP__ WP161951 10.4849 120.385 80 1 10.5425 120.485 9 960 0 0 10.4425 120.513 5 97 960 10.4849 120.385 TC 80 10.5273 120.304 4 80 10.4849 120.385 80 974 180 7 274
1951337N09150 1951 92 WP MM AMY 1951-12-10 18:00:00 TS 10.5283 120.075 960 tokyo main 43 15 OOO______OPO__ jtwc_wp WP161951 10.5000 120.100 80 1 10.6000 120.100 9 960 0 0 0 10.5000 120.100 5 97 960 10.5000 120.100 TC 80 10.5698 119.953 4 80 10.5000 120.100 80 976 180 7 279
1951337N09150 1951 92 WP MM AMY 1951-12-10 21:00:00 TS 10.5971 119.743 main 10 0 PPP______PPP__ WP161951 10.5850 119.735 80 1 10.6499 119.777 9 960 0 0 10.5499 119.827 5 92 964 10.5850 119.735 TC 80 10.6274 119.650 4 80 10.5850 119.735 80 978 150 6 284
1951337N09150 1951 92 WP MM AMY 1951-12-11 00:00:00 TS 10.6833 119.450 960 tokyo main 0 0 OOO______OOO__ jtwc_wp WP161951 10.7000 119.400 80 1 10.7000 119.500 9 960 0 0 0 10.6000 119.600 5 87 968 10.7000 119.400 TC 80 10.7000 119.400 4 80 10.7000 119.400 80 980 120 6 287
1951337N09150 1951 92 WP MM AMY 1951-12-11 03:00:00 TS 10.7617 119.202 main 10 10 PPP______PPP__ WP161951 10.8000 119.162 80 1 10.7425 119.235 9 965 0 0 10.6425 119.300 5 87 968 10.8000 119.162 TC 80 10.7854 119.192 4 80 10.8000 119.162 80 982 120 5 291
1951337N09150 1951 92 WP MM AMY 1951-12-11 06:00:00 TS 10.8475 119.005 970 tokyo main 32 32 OOO______OPO__ jtwc_wp WP161951 10.9000 119.000 80 1 10.8000 119.000 9 970 0 0 0 10.7000 119.000 5 87 968 10.9000 119.000 TC 80 10.8848 119.032 4 80 10.9000 119.000 80 984 120 4 298
1951337N09150 1951 92 WP MM AMY 1951-12-11 09:00:00 TS 10.9449 118.848 main 54 54 PPP______PPP__ WP161951 11.0000 118.885 80 1 10.8850 118.785 9 969 0 0 10.7925 118.743 5 87 968 11.0000 118.885 TC 80 10.9918 118.907 4 80 11.0000 118.885 80 983 120 3 306
1951337N09150 1951 92 WP MM AMY 1951-12-11 12:00:00 TS 11.0500 118.717 968 tokyo main 69 66 OOO______OOO__ jtwc_wp WP161951 11.1000 118.800 80 1 11.0000 118.600 9 968 0 0 0 10.9000 118.500 5 87 968 11.1000 118.800 TC 80 11.1000 118.800 4 80 11.1000 118.800 80 982 120 3 308
1951337N09150 1951 92 WP MM AMY 1951-12-11 15:00:00 TS 11.1521 118.572 main 83 83 PPP______PPP__ WP161951 11.2000 118.700 82 1 11.1425 118.428 9 968 0 0 10.9700 118.227 5 87 968 11.2000 118.700 TC 82 11.2000 118.677 4 81 11.2000 118.700 82 979 150 3 309
1951337N09150 1951 92 WP MM AMY 1951-12-11 18:00:00 TS 11.2667 118.445 968 tokyo main 108 108 OOO______OPO__ jtwc_wp WP161951 11.3000 118.600 85 2 11.3000 118.300 9 968 0 0 0 11.1000 118.000 5 87 968 11.3000 118.600 TC 85 11.3000 118.570 4 82 11.3000 118.600 85 977 180 4 318
1951337N09150 1951 92 WP MM AMY 1951-12-11 21:00:00 TS 11.4133 118.335 main 122 122 PPP______PPP__ WP161951 11.4000 118.493 85 2 11.4650 118.220 9 968 0 0 11.4150 117.833 5 87 968 11.4000 118.493 TC 85 11.4000 118.477 4 83 11.4000 118.493 85 975 180 3 328
1951337N09150 1951 92 WP MM AMY 1951-12-12 00:00:00 TS 11.5500 118.267 968 tokyo main 128 128 OOO______OOO__ jtwc_wp WP161951 11.5000 118.400 85 2 11.6000 118.200 9 968 0 0 0 11.7000 117.800 5 87 968 11.5000 118.400 TC 85 11.5000 118.400 4 85 11.5000 118.400 85 974 180 2 340
1951337N09150 1951 92 WP MM AMY 1951-12-12 03:00:00 TS 11.6368 118.258 main 128 128 PPP______PPP__ WP161951 11.6000 118.342 85 2 11.6725 118.227 9 968 0 0 11.7526 117.970 5 87 968 11.6000 118.342 TC 85 11.5959 118.323 4 86 11.6000 118.342 85 971 210 2 0
1951337N09150 1951 92 WP MM AMY 1951-12-12 06:00:00 TS 11.6987 118.277 968 tokyo main 132 132 OOO______OPO__ jtwc_wp WP161951 11.7000 118.300 85 2 11.7000 118.300 9 968 0 0 0 11.7000 118.200 5 87 968 11.7000 118.300 TC 85 11.6925 118.263 4 87 11.7000 118.300 85 969 240 1 11
1951337N09150 1951 92 WP MM AMY 1951-12-12 09:00:00 TS 11.7534 118.276 main 137 137 PPP______PPP__ WP161951 11.8000 118.243 87 2 11.6850 118.400 9 969 0 0 11.6425 118.308 5 82 969 11.8000 118.243 TC 87 11.7928 118.220 4 88 11.8000 118.243 87 970 240 1 7
1951337N09150 1951 92 WP MM AMY 1951-12-12 12:00:00 TS 11.8167 118.283 970 tokyo main 137 137 OOO______OOO__ jtwc_wp WP161951 11.9000 118.200 90 2 11.7000 118.500 9 970 0 0 0 11.6000 118.400 4 77 970 11.9000 118.200 TC 90 11.9000 118.200 4 90 11.9000 118.200 90 971 240 2 16
1951337N09150 1951 92 WP MM AMY 1951-12-12 15:00:00 TS 11.9098 118.313 main 143 143 PPP______PPP__ WP161951 11.9925 118.185 90 2 11.8275 118.565 9 972 0 0 11.6200 118.565 4 77 972 11.9925 118.185 TC 90 12.0340 118.191 4 88 11.9925 118.185 90 974 240 2 19
1951337N09150 1951 92 WP MM AMY 1951-12-12 18:00:00 TS 12.0287 118.351 975 tokyo main 141 141 OOO______OPO__ jtwc_wp WP161951 12.1000 118.200 90 2 12.0000 118.600 9 975 0 0 0 11.7000 118.700 4 77 975 12.1000 118.200 TC 90 12.1725 118.205 4 87 12.1000 118.200 90 977 240 3 15
1951337N09150 1951 92 WP MM AMY 1951-12-12 21:00:00 TS 12.1774 118.382 main 156 156 PPP______PPP__ WP161951 12.2575 118.235 87 2 12.1650 118.615 9 977 0 0 11.8275 118.730 4 72 977 12.2575 118.235 TC 87 12.2997 118.241 4 86 12.2575 118.235 87 979 210 3 13
1951337N09150 1951 92 WP MM AMY 1951-12-13 00:00:00 TS 12.3167 118.417 980 tokyo main 164 164 OOO______OOO__ jtwc_wp WP161951 12.4000 118.300 85 2 12.3000 118.600 9 980 0 0 0 12.0000 118.700 4 68 980 12.4000 118.300 TC 85 12.4000 118.300 4 85 12.4000 118.300 85 982 180 2 21
1951337N09150 1951 92 WP MM AMY 1951-12-13 03:00:00 TS 12.4075 118.469 main 164 164 PPP______PPP__ WP161951 12.4725 118.393 85 2 12.3500 118.565 9 982 0 0 12.2075 118.658 4 63 982 12.4725 118.393 TC 85 12.4700 118.415 4 83 12.4725 118.393 85 984 180 2 35
1951337N09150 1951 92 WP MM AMY 1951-12-13 06:00:00 TS 12.4683 118.524 985 tokyo main 172 166 OOO______OPO__ jtwc_wp WP161951 12.5000 118.500 85 2 12.4000 118.500 9 985 0 0 0 12.4000 118.600 3 58 985 12.5000 118.500 TC 85 12.5101 118.545 4 82 12.5000 118.500 85 987 180 2 42
1951337N09150 1951 92 WP MM AMY 1951-12-13 09:00:00 TS 12.5329 118.585 main 166 166 PPP______PPP__ WP161951 12.5225 118.630 82 1 12.5725 118.400 9 985 0 0 12.5375 118.565 3 58 985 12.5225 118.630 TC 82 12.5200 118.653 4 81 12.5225 118.630 82 989 180 1 43
1951337N09150 1951 92 WP MM AMY 1951-12-13 12:00:00 TS 12.5500 118.600 985 tokyo main 175 166 OOO______OOO__ jtwc_wp WP161951 12.5000 118.700 80 1 12.7000 118.300 9 985 0 0 0 12.6000 118.500 3 58 985 12.5000 118.700 TC 80 12.5000 118.700 4 80 12.5000 118.700 80 991 180 1 233
1951337N09150 1951 92 WP MM AMY 1951-12-13 15:00:00 TS 12.4855 118.519 main 172 164 PPP______PPP__ WP161951 12.4075 118.637 80 1 12.6450 118.235 9 987 0 0 12.5875 118.350 3 53 987 12.4075 118.637 TC 80 12.4579 118.615 4 80 12.4075 118.637 80 992 180 3 229
1951337N09150 1951 92 WP MM AMY 1951-12-13 18:00:00 TS 12.3813 118.395 990 tokyo main 171 171 OOO______OPO__ jtwc_wp WP161951 12.3000 118.500 80 1 12.5000 118.200 9 990 0 0 0 12.5000 118.200 3 48 990 12.3000 118.500 TC 80 12.3876 118.472 4 80 12.3000 118.500 80 994 180 3 232
1951337N09150 1951 92 WP MM AMY 1951-12-13 21:00:00 TS 12.2927 118.270 main 171 171 PPP______PPP__ WP161951 12.2500 118.327 80 1 12.3500 118.185 9 990 0 0 12.3575 118.135 3 48 990 12.2500 118.327 TC 80 12.2985 118.318 4 80 12.2500 118.327 80 995 180 3 229
1951337N09150 1951 92 WP MM AMY 1951-12-14 00:00:00 TS 12.2000 118.183 990 tokyo main 172 165 OOO______OOO__ jtwc_wp WP161951 12.2000 118.200 80 1 12.2000 118.200 9 990 0 0 0 12.2000 118.100 3 48 990 12.2000 118.200 TC 80 12.2000 118.200 4 80 12.2000 118.200 80 996 180 2 200
1951337N09150 1951 92 WP MM AMY 1951-12-14 03:00:00 TS 12.1037 118.196 main 165 158 PPP______PPP__ WP161951 12.1075 118.228 82 1 12.1000 118.250 9 990 0 0 12.0925 118.043 3 48 990 12.1075 118.228 TC 82 12.1072 118.202 4 82 12.1075 118.228 82 996 180 2 165
1951337N09150 1951 92 WP MM AMY 1951-12-14 06:00:00 TS 12.0012 118.240 990 tokyo main 158 143 OOO______OPO__ jtwc_wp WP161951 12.0000 118.300 85 2 12.0000 118.300 9 990 0 0 0 12.0000 118.000 3 48 990 12.0000 118.300 TC 85 12.0075 118.243 4 85 12.0000 118.300 85 997 180 2 165
1951337N09150 1951 92 WP MM AMY 1951-12-14 09:00:00 TS 11.8911 118.257 main 143 137 PPP______PPP__ WP161951 11.9000 118.315 87 2 11.8425 118.315 9 990 0 0 11.9000 117.993 3 48 990 11.9000 118.315 TC 87 11.9040 118.287 4 87 11.9000 118.315 87 995 180 2 0
1951337N09150 1951 92 WP MM AMY 1951-12-14 12:00:00 TS 11.7833 118.250 990 tokyo main 137 137 OOO______OOO__ jtwc_wp WP161951 11.8000 118.300 90 2 11.7000 118.300 9 990 0 0 0 11.8000 118.000 3 48 990 11.8000 118.300 TC 90 11.8000 118.300 4 90 11.8000 118.300 90 994 180 2 191
1951337N09150 1951 92 WP MM AMY 1951-12-14 15:00:00 TS 11.6891 118.221 main 142 138 PPP______PPP__ WP161951 11.7000 118.273 92 2 11.6350 118.258 9 990 0 0 11.7075 118.000 3 48 990 11.7000 118.273 TC 92 11.6918 118.252 4 92 11.7000 118.273 92 992 180 2 205
1951337N09150 1951 92 WP MM AMY 1951-12-14 18:00:00 TS 11.5975 118.161 990 tokyo main 138 138 OOO______OPO__ jtwc_wp WP161951 11.6000 118.200 95 2 11.6000 118.200 9 990 0 0 0 11.6000 118.000 3 48 990 11.6000 118.200 TC 95 11.5849 118.167 4 95 11.6000 118.200 95 990 180 2 216
1951337N09150 1951 92 WP MM AMY 1951-12-14 21:00:00 TS 11.4951 118.078 main 145 145 PPP______PPP__ WP161951 11.4925 118.072 97 3 11.5575 118.180 9 990 0 0 11.4500 118.023 3 48 990 11.4925 118.072 TC 97 11.4856 118.049 4 97 11.4925 118.072 97 988 180 3 226
1951337N09150 1951 92 WP MM AMY 1951-12-15 00:00:00 TS 11.4000 117.950 990 tokyo main 152 152 OOO______OOO__ jtwc_wp WP161951 11.4000 117.900 100 3 11.5000 118.100 9 990 0 0 0 11.3000 118.000 3 48 990 11.4000 117.900 TC 100 11.4000 117.900 4 100 11.4000 117.900 100 987 180 4 241
1951337N09150 1951 92 WP MM AMY 1951-12-15 03:00:00 TS 11.3247 117.767 main 169 169 PPP______PPP__ WP161951 11.3425 117.708 100 3 11.4001 117.872 9 990 0 0 11.1850 117.880 3 48 990 11.3425 117.708 TC 100 11.3357 117.729 4 100 11.3425 117.708 100 986 180 4 251
1951337N09150 1951 92 WP MM AMY 1951-12-15 06:00:00 TS 11.2642 117.555 990 tokyo main 187 187 OOO______OPO__ jtwc_wp WP161951 11.3000 117.500 100 3 11.3000 117.600 9 990 0 0 0 11.1000 117.700 3 48 990 11.3000 117.500 TC 100 11.2850 117.530 4 100 11.3000 117.500 100 985 180 4 254
1951337N09150 1951 92 WP MM AMY 1951-12-15 09:00:00 TS 11.2103 117.354 main 196 196 PPP______PPP__ WP161951 11.2500 117.300 100 3 11.2350 117.393 9 992 0 0 11.0350 117.515 3 43 992 11.2500 117.300 TC 100 11.2419 117.316 4 100 11.2500 117.300 100 985 180 4 256
1951337N09150 1951 92 WP MM AMY 1951-12-15 12:00:00 TS 11.1667 117.150 995 tokyo main 214 214 OOO______OOO__ jtwc_wp WP161951 11.2000 117.100 100 3 11.2000 117.200 9 995 0 0 0 11.0000 117.300 2 38 995 11.2000 117.100 TC 100 11.2000 117.100 4 100 11.2000 117.100 100 986 180 4 259
1951337N09150 1951 92 WP MM AMY 1951-12-15 15:00:00 TS 11.1328 116.944 main 234 234 PPP______PPP__ WP161951 11.1500 116.900 92 2 11.2000 116.993 9 995 0 0 10.9850 117.058 2 38 995 11.1500 116.900 TC 92 11.1621 116.916 4 92 11.1500 116.900 92 988 180 4 261
1951337N09150 1951 92 WP MM AMY 1951-12-15 18:00:00 TS 11.1037 116.738 995 tokyo main 244 244 OOO______OPO__ jtwc_wp WP161951 11.1000 116.700 85 2 11.2000 116.800 9 995 0 0 0 11.0000 116.800 2 38 995 11.1000 116.700 TC 85 11.1223 116.730 4 85 11.1000 116.700 85 990 180 4 263
1951337N09150 1951 92 WP MM AMY 1951-12-15 21:00:00 TS 11.0852 116.553 main 250 250 PPP______PPP__ WP161951 11.0650 116.515 77 1 11.1799 116.680 9 995 0 0 11.0649 116.565 2 38 995 11.0650 116.515 TC 77 11.0714 116.529 4 77 11.0650 116.515 77 992 180 4 260
1951337N09150 1951 92 WP MM AMY 1951-12-16 00:00:00 TS 11.0333 116.333 995 tokyo main 260 260 OOO______OOO__ jtwc_wp WP161951 11.0000 116.300 70 1 11.1000 116.500 9 995 0 0 0 11.1000 116.300 2 38 995 11.0000 116.300 TC 70 11.0000 116.300 4 70 11.0000 116.300 70 994 180 5 250
1951337N09150 1951 92 WP MM AMY 1951-12-16 03:00:00 TS 10.9004 116.031 main 274 274 PPP______PPP__ WP161951 10.8575 116.015 77 1 10.9000 116.145 9 995 0 0 11.0375 115.965 2 38 995 10.8575 116.015 TC 77 10.8925 116.033 4 68 10.8575 116.015 77 993 180 7 245
1951337N09150 1951 92 WP MM AMY 1951-12-16 06:00:00 TS 10.7442 115.690 995 tokyo main 282 282 OOO______OPO__ jtwc_wp WP161951 10.7000 115.700 85 2 10.7000 115.700 9 995 0 0 0 10.9000 115.600 2 38 995 10.7000 115.700 TC 85 10.7650 115.737 4 67 10.7000 115.700 85 993 180 7 247
1951337N09150 1951 92 WP MM AMY 1951-12-16 09:00:00 TS 10.6200 115.349 main 307 307 PPP______PPP__ WP161951 10.5925 115.385 75 1 10.6200 115.250 9 995 0 0 10.6924 115.265 2 38 995 10.5925 115.385 TC 75 10.6300 115.423 4 66 10.5925 115.385 75 995 180 7 251
1951337N09150 1951 92 WP MM AMY 1951-12-16 12:00:00 TS 10.5167 115.017 995 tokyo main 327 327 OOO______OOO__ jtwc_wp WP161951 10.5000 115.100 65 1 10.6000 114.800 9 995 0 0 0 10.5000 114.900 2 38 995 10.5000 115.100 TC 65 10.5000 115.100 4 65 10.5000 115.100 65 997 180 6 253
1951337N09150 1951 92 WP MM AMY 1951-12-16 15:00:00 TS 10.4278 114.728 main 349 349 PPP______PPP__ WP161951 10.3999 114.923 60 0 10.5849 114.385 9 995 0 0 10.3976 114.442 2 38 995 10.3999 114.923 TC 60 10.3848 114.775 4 57 10.3999 114.923 60 999 180 6 256
1951337N09150 1951 92 WP MM AMY 1951-12-16 18:00:00 TS 10.3673 114.424 995 tokyo main 376 370 OOO______OPO__ jtwc_wp WP161951 10.3000 114.700 55 0 10.6000 114.000 9 995 0 0 0 10.4000 114.000 2 38 995 10.3000 114.700 TC 55 10.2827 114.450 4 50 10.3000 114.700 55 1001 180 7 259
1951337N09150 1951 92 WP MM AMY 1951-12-16 21:00:00 TS 10.2967 114.058 main 399 399 PPP______PPP__ WP161951 10.1249 114.317 45 0 10.6274 113.650 9 995 0 0 10.5349 113.655 2 38 995 10.1249 114.317 TC 45 10.1893 114.125 4 42 10.1249 114.317 45 1002 180 8 270
1951337N09150 1951 92 WP MM AMY 1951-12-17 00:00:00 TS 10.3667 113.600 995 tokyo main 453 439 OOO______OOO__ jtwc_wp WP161951 10.1000 113.800 35 0 10.7000 113.300 9 995 0 0 0 10.7000 113.400 2 38 995 10.1000 113.800 TC 35 10.1000 113.800 2 35 10.1000 113.800 35 1004 180 10 290
1951337N09150 1951 92 WP MM AMY 1951-12-17 03:00:00 TS 10.6308 113.113 main 439 387 PPP______P_P__ WP161951 10.4003 113.178 35 0 10.8575 112.900 9 997 0 0 10.7499 113.227 2 33 997 10.4003 113.178 TC 35 2 10.4003 113.178 35 1006 150 10 302
1951337N09150 1951 92 WP MM AMY 1951-12-17 06:00:00 TS 10.9000 112.718 1000 tokyo main 387 373 OOO______O_O__ jtwc_wp WP161951 10.9000 112.500 35 0 11.0000 112.500 9 1000 0 0 0 10.8000 113.100 1 29 1000 10.9000 112.500 TC 35 2 10.9000 112.500 35 1008 120 7 302
1951337N09150 1951 92 WP MM AMY 1951-12-17 09:00:00 TS 10.9824 112.550 main 373 349 _PP___________ WP161951 -1 11.0224 112.150 9 1000 0 0 10.9425 112.950 1 29 1000 TC 2 4 295
1951337N09150 1951 92 WP MM AMY 1951-12-17 12:00:00 TS 11.0571 112.371 1000 tokyo main 349 328 _OO___________ -1 11.0000 111.800 2 1000 0 0 0 11.1000 112.800 1 29 1000 3 295
1951337N09150 1951 92 WP MM AMY 1951-12-17 15:00:00 TS 11.1309 112.233 main 328 325 _PP___________ -1 10.9926 111.413 2 1000 0 0 11.2000 112.642 1 29 1000 2 318
1951337N09150 1951 92 WP MM AMY 1951-12-17 18:00:00 TS 11.2400 112.200 1000 tokyo main 325 323 _OO___________ -1 11.0000 111.000 2 1000 0 0 0 11.3000 112.500 1 29 1000 3 25
1951337N09150 1951 92 WP MM AMY 1951-12-17 21:00:00 TS 11.4425 112.385 main 342 324 __P___________ -1 2 0 0 11.4425 112.385 1 29 1001 4 15
1951337N09150 1951 92 WP MM AMY 1951-12-18 00:00:00 TS 11.6000 112.300 main 324 310 __O___________ -1 11.6000 112.300 1 29 1002 3 336
1951337N09150 1951 92 WP MM AMY 1951-12-18 03:00:00 TS 11.7500 112.242 main 310 303 __P___________ -1 11.7500 112.242 1 29 1002 3 343
1951337N09150 1951 92 WP MM AMY 1951-12-18 06:00:00 TS 11.9000 112.200 main 303 301 __O___________ -1 11.9000 112.200 1 29 1002 3 343
1951337N09150 1951 92 WP MM AMY 1951-12-18 09:00:00 TS 12.0425 112.150 main 301 286 __P___________ -1 12.0425 112.150 1 26 1003 3 343
1951337N09150 1951 92 WP MM AMY 1951-12-18 12:00:00 TS 12.2000 112.100 main 286 272 __O___________ -1 12.2000 112.100 1 23 1004 4 344
1951337N09150 1951 92 WP MM AMY 1951-12-18 15:00:00 TS 12.3925 112.043 main 272 271 __P___________ -1 12.3925 112.043 1 23 1004 4 347
1951337N09150 1951 92 WP MM AMY 1951-12-18 18:00:00 TS 12.6000 112.000 main 271 271 __O___________ -1 12.6000 112.000 1 23 1004 4 353
1951337N09150 1951 92 WP MM AMY 1951-12-18 21:00:00 TS 12.8025 111.990 main 271 271 __P___________ -1 12.8025 111.990 1 21 1006 4 0
1951337N09150 1951 92 WP MM AMY 1951-12-19 00:00:00 TS 13.0000 112.000 main 271 __O___________ -1 13.0000 112.000 0 19 1008 4 3

デジタル台風データ・検索

IBTrACS Databaseについて

本データベースは、米国NOAAが公開する1842年以降の世界の熱帯低気圧のベストトラックデータアーカイブInternational Best Track Archive for Climate Stewardship (IBTrACS)を、ウェブで閲覧しやすい形式に変換したものです。

最終更新日:2021-10-19